createdAt,value
2018-04-07T00:00:14.208Z,5.67
2018-04-07T00:01:24.175Z,5.65
2018-04-07T00:02:34.190Z,5.64
2018-04-07T00:03:43.896Z,5.73
2018-04-07T00:04:53.613Z,5.73
2018-04-07T00:06:03.062Z,5.65
2018-04-07T00:07:12.534Z,5.64
2018-04-07T00:08:21.970Z,5.69
2018-04-07T00:09:31.676Z,5.74
2018-04-07T00:10:41.382Z,5.73
2018-04-07T00:11:51.085Z,5.7
2018-04-07T00:13:00.798Z,5.7
2018-04-07T00:14:10.252Z,5.65
2018-04-07T00:15:20.215Z,5.59
2018-04-07T00:16:29.405Z,5.69
2018-04-07T00:17:39.105Z,5.62
2018-04-07T00:18:48.808Z,5.61
2018-04-07T00:19:58.512Z,5.56
2018-04-07T00:21:08.212Z,5.58
2018-04-07T00:22:17.918Z,5.58
2018-04-07T00:23:27.624Z,5.62
2018-04-07T00:24:36.820Z,5.55
2018-04-07T00:25:46.776Z,5.56
2018-04-07T00:26:56.484Z,5.52
2018-04-07T00:28:06.437Z,5.44
2018-04-07T00:29:15.885Z,5.43
2018-04-07T00:30:25.844Z,5.41
2018-04-07T00:31:35.544Z,5.36
2018-04-07T00:32:45.241Z,5.36
2018-04-07T00:33:54.692Z,5.38
2018-04-07T00:35:04.658Z,5.33
2018-04-07T00:36:14.601Z,5.33
2018-04-07T00:37:24.308Z,5.26
2018-04-07T00:38:34.280Z,5.31
2018-04-07T00:39:43.999Z,5.29
2018-04-07T00:40:53.451Z,5.29
2018-04-07T00:42:03.413Z,5.28
2018-04-07T00:43:13.372Z,5.19
2018-04-07T00:44:23.084Z,5.26
2018-04-07T00:45:32.535Z,5.23
2018-04-07T00:46:42.497Z,5.08
2018-04-07T00:47:52.448Z,5.15
2018-04-07T00:49:02.145Z,5.16
2018-04-07T00:50:11.595Z,5.05
2018-04-07T00:51:21.291Z,5.05
2018-04-07T00:52:30.504Z,5.07
2018-04-07T00:53:40.206Z,4.98
2018-04-07T00:54:49.382Z,5.01
2018-04-07T00:55:58.828Z,4.97
2018-04-07T00:57:08.782Z,5.01
2018-04-07T00:58:18.482Z,4.98
2018-04-07T00:59:28.186Z,4.97
2018-04-07T01:00:38.165Z,4.97
2018-04-07T01:01:47.613Z,4.87
2018-04-07T01:02:57.566Z,4.94
2018-04-07T01:04:07.520Z,5
2018-04-07T01:05:17.482Z,5
2018-04-07T01:06:27.459Z,5
2018-04-07T01:07:37.181Z,4.84
2018-04-07T01:08:47.136Z,4.86
2018-04-07T01:09:57.115Z,4.87
2018-04-07T01:11:06.814Z,4.87
2018-04-07T01:12:16.776Z,4.71
2018-04-07T01:13:26.744Z,4.68
2018-04-07T01:14:36.703Z,4.78
2018-04-07T01:15:46.660Z,4.68
2018-04-07T01:16:56.625Z,4.71
2018-04-07T01:18:07.034Z,4.7
2018-04-07T01:19:16.724Z,4.7
2018-04-07T01:20:26.160Z,4.66
2018-04-07T01:21:36.117Z,4.57
2018-04-07T01:22:45.544Z,4.63
2018-04-07T01:23:54.978Z,4.67
2018-04-07T01:25:04.948Z,4.68
2018-04-07T01:26:14.969Z,4.58
2018-04-07T01:27:24.414Z,4.58
2018-04-07T01:28:34.370Z,4.6
2018-04-07T01:29:44.080Z,4.61
2018-04-07T01:30:54.042Z,4.66
2018-04-07T01:32:03.482Z,4.68
2018-04-07T01:33:13.443Z,4.6
2018-04-07T01:34:22.891Z,4.64
2018-04-07T01:35:32.876Z,4.7
2018-04-07T01:36:42.310Z,4.68
2018-04-07T01:37:52.010Z,4.84
2018-04-07T01:39:01.978Z,4.74
2018-04-07T01:40:11.942Z,4.82
2018-04-07T01:41:21.644Z,4.86
2018-04-07T01:42:31.359Z,4.78
2018-04-07T01:43:40.530Z,4.87
2018-04-07T01:44:50.490Z,4.79
2018-04-07T01:46:00.181Z,4.86
2018-04-07T01:47:10.144Z,4.92
2018-04-07T01:48:19.848Z,5
2018-04-07T01:49:29.549Z,5.01
2018-04-07T01:50:38.986Z,4.98
2018-04-07T01:51:48.684Z,5.05
2018-04-07T01:52:58.133Z,5.02
2018-04-07T01:54:07.841Z,5.01
2018-04-07T01:55:17.799Z,4.98
2018-04-07T01:56:27.517Z,5.02
2018-04-07T01:57:36.709Z,5.01
2018-04-07T01:58:46.674Z,5.04
2018-04-07T01:59:56.632Z,5.01
2018-04-07T02:01:06.074Z,5
2018-04-07T02:02:15.787Z,5.04
2018-04-07T02:03:25.743Z,4.98
2018-04-07T02:04:35.709Z,5.01
2018-04-07T02:05:45.666Z,5
2018-04-07T02:06:55.629Z,4.98
2018-04-07T02:08:05.375Z,4.98
2018-04-07T02:09:15.081Z,5.07
2018-04-07T02:10:24.521Z,4.95
2018-04-07T02:11:34.486Z,4.95
2018-04-07T02:12:43.928Z,5.01
2018-04-07T02:13:53.625Z,4.98
2018-04-07T02:15:03.585Z,4.92
2018-04-07T02:16:13.277Z,5
2018-04-07T02:17:22.722Z,5.01
2018-04-07T02:18:31.892Z,5
2018-04-07T02:19:41.850Z,5.01
2018-04-07T02:20:51.562Z,4.84
2018-04-07T02:22:01.280Z,4.94
2018-04-07T02:23:10.747Z,4.94
2018-04-07T02:24:20.440Z,4.89
2018-04-07T02:25:30.149Z,4.87
2018-04-07T02:26:40.104Z,4.83
2018-04-07T02:27:49.537Z,4.86
2018-04-07T02:28:58.722Z,4.87
2018-04-07T02:30:08.185Z,4.78
2018-04-07T02:31:18.121Z,4.84
2018-04-07T02:32:28.097Z,4.92
2018-04-07T02:33:37.799Z,5
2018-04-07T02:34:47.771Z,4.87
2018-04-07T02:35:57.240Z,4.83
2018-04-07T02:37:07.195Z,4.86
2018-04-07T02:38:17.150Z,4.98
2018-04-07T02:39:27.112Z,4.84
2018-04-07T02:40:37.086Z,4.86
2018-04-07T02:41:46.801Z,4.89
2018-04-07T02:42:56.262Z,4.78
2018-04-07T02:44:05.961Z,4.86
2018-04-07T02:45:15.680Z,4.84
2018-04-07T02:46:25.129Z,4.78
2018-04-07T02:47:34.842Z,4.86
2018-04-07T02:48:44.818Z,4.84
2018-04-07T02:49:54.778Z,4.87
2018-04-07T02:51:04.751Z,4.87
2018-04-07T02:52:14.197Z,4.79
2018-04-07T02:53:24.163Z,4.79
2018-04-07T02:54:33.888Z,4.83
2018-04-07T02:55:43.859Z,4.79
2018-04-07T02:56:53.315Z,4.87
2018-04-07T02:58:03.281Z,4.9
2018-04-07T02:59:13.244Z,4.84
2018-04-07T03:00:23.219Z,4.83
2018-04-07T03:01:33.189Z,4.79
2018-04-07T03:02:43.149Z,4.7
2018-04-07T03:03:52.443Z,4.71
2018-04-07T03:05:02.410Z,4.74
2018-04-07T03:06:12.135Z,4.7
2018-04-07T03:07:21.584Z,4.74
2018-04-07T03:08:31.301Z,4.68
2018-04-07T03:09:40.996Z,4.71
2018-04-07T03:10:50.432Z,4.71
2018-04-07T03:12:00.128Z,4.7
2018-04-07T03:13:10.101Z,4.75
2018-04-07T03:14:19.807Z,4.9
2018-04-07T03:15:29.756Z,4.84
2018-04-07T03:16:39.201Z,4.84
2018-04-07T03:17:48.910Z,4.89
2018-04-07T03:18:58.887Z,4.87
2018-04-07T03:20:08.586Z,4.89
2018-04-07T03:21:18.029Z,4.83
2018-04-07T03:22:27.994Z,4.87
2018-04-07T03:23:37.700Z,4.86
2018-04-07T03:24:47.651Z,4.75
2018-04-07T03:25:57.353Z,4.79
2018-04-07T03:27:07.304Z,4.7
2018-04-07T03:28:17.262Z,4.7
2018-04-07T03:29:26.956Z,4.82
2018-04-07T03:30:36.926Z,4.83
2018-04-07T03:31:46.643Z,4.87
2018-04-07T03:32:56.078Z,4.71
2018-04-07T03:34:05.779Z,4.83
2018-04-07T03:35:15.233Z,4.84
2018-04-07T03:36:24.940Z,4.71
2018-04-07T03:37:34.126Z,4.84
2018-04-07T03:38:43.822Z,4.84
2018-04-07T03:39:53.793Z,4.74
2018-04-07T03:41:03.485Z,4.71
2018-04-07T03:42:13.449Z,4.75
2018-04-07T03:43:23.144Z,4.66
2018-04-07T03:44:33.101Z,4.71
2018-04-07T03:45:43.056Z,4.64
2018-04-07T03:46:53.008Z,4.74
2018-04-07T03:48:01.934Z,4.7
2018-04-07T03:49:11.900Z,4.82
2018-04-07T03:50:21.849Z,4.75
2018-04-07T03:51:31.814Z,4.74
2018-04-07T03:52:41.794Z,4.71
2018-04-07T03:53:51.504Z,4.64
2018-04-07T03:55:01.197Z,4.64
2018-04-07T03:56:10.910Z,4.7
2018-04-07T03:57:20.610Z,4.7
2018-04-07T03:58:30.308Z,4.71
2018-04-07T03:59:40.266Z,4.67
2018-04-07T04:00:49.959Z,4.74
2018-04-07T04:01:59.653Z,4.68
2018-04-07T04:03:09.346Z,4.66
2018-04-07T04:04:19.051Z,4.71
2018-04-07T04:05:28.747Z,4.7
2018-04-07T04:06:38.452Z,4.66
2018-04-07T04:07:47.902Z,4.78
2018-04-07T04:08:57.341Z,4.71
2018-04-07T04:10:07.053Z,4.64
2018-04-07T04:11:16.746Z,4.7
2018-04-07T04:12:26.703Z,4.67
2018-04-07T04:13:36.714Z,4.74
2018-04-07T04:14:46.675Z,4.74
2018-04-07T04:15:56.365Z,4.74
2018-04-07T04:17:06.320Z,4.67
2018-04-07T04:18:16.273Z,4.78
2018-04-07T04:19:25.727Z,4.78
2018-04-07T04:20:35.685Z,4.75
2018-04-07T04:21:44.866Z,4.74
2018-04-07T04:22:54.812Z,4.84
2018-04-07T04:24:04.784Z,4.67
2018-04-07T04:25:14.471Z,4.7
2018-04-07T04:26:24.176Z,4.67
2018-04-07T04:27:33.874Z,4.86
2018-04-07T04:28:43.316Z,4.75
2018-04-07T04:29:53.279Z,4.74
2018-04-07T04:31:02.980Z,4.7
2018-04-07T04:32:12.679Z,4.7
2018-04-07T04:33:22.650Z,4.76
2018-04-07T04:34:32.599Z,4.74
2018-04-07T04:35:42.561Z,4.79
2018-04-07T04:36:52.262Z,4.68
2018-04-07T04:38:02.224Z,4.67
2018-04-07T04:39:12.180Z,4.9
2018-04-07T04:40:21.883Z,4.87
2018-04-07T04:41:31.844Z,4.84
2018-04-07T04:42:41.278Z,4.79
2018-04-07T04:43:51.250Z,4.89
2018-04-07T04:45:01.228Z,4.94
2018-04-07T04:46:11.239Z,5
2018-04-07T04:47:21.190Z,5
2018-04-07T04:48:31.142Z,5.05
2018-04-07T04:49:41.108Z,4.92
2018-04-07T04:50:51.070Z,5.12
2018-04-07T04:52:00.767Z,5.16
2018-04-07T04:53:10.212Z,5.05
2018-04-07T04:54:20.172Z,5.2
2018-04-07T04:55:29.891Z,5.19
2018-04-07T04:56:39.844Z,5.15
2018-04-07T04:57:49.551Z,5.2
2018-04-07T04:58:59.254Z,5.33
2018-04-07T05:00:09.216Z,5.38
2018-04-07T05:01:19.165Z,5.37
2018-04-07T05:02:28.605Z,5.44
2018-04-07T05:03:38.305Z,5.47
2018-04-07T05:04:48.258Z,5.52
2018-04-07T05:05:57.703Z,5.36
2018-04-07T05:07:07.662Z,5.59
2018-04-07T05:08:17.361Z,5.61
2018-04-07T05:09:26.547Z,5.64
2018-04-07T05:10:36.243Z,5.67
2018-04-07T05:11:45.946Z,5.65
2018-04-07T05:12:55.648Z,5.7
2018-04-07T05:14:05.084Z,5.76
2018-04-07T05:15:15.062Z,5.8
2018-04-07T05:16:24.505Z,5.79
2018-04-07T05:17:34.218Z,5.81
2018-04-07T05:18:43.919Z,5.8
2018-04-07T05:19:53.640Z,5.83
2018-04-07T05:21:03.597Z,5.83
2018-04-07T05:22:13.321Z,5.92
2018-04-07T05:23:23.383Z,5.94
2018-04-07T05:24:33.350Z,5.84
2018-04-07T05:25:42.782Z,5.83
2018-04-07T05:26:52.734Z,5.98
2018-04-07T05:28:02.685Z,5.81
2018-04-07T05:29:12.646Z,6.06
2018-04-07T05:30:22.359Z,5.99
2018-04-07T05:31:32.319Z,6.06
2018-04-07T05:32:42.292Z,6.16
2018-04-07T05:33:52.001Z,6.06
2018-04-07T05:35:01.963Z,6.15
2018-04-07T05:36:11.672Z,6.16
2018-04-07T05:37:21.379Z,6.25
2018-04-07T05:38:31.083Z,6.17
2018-04-07T05:39:41.038Z,6.19
2018-04-07T05:40:51.004Z,6.17
2018-04-07T05:42:00.975Z,6.29
2018-04-07T05:43:10.937Z,6.31
2018-04-07T05:44:20.910Z,6.32
2018-04-07T05:45:30.618Z,6.35
2018-04-07T05:46:40.575Z,6.34
2018-04-07T05:47:50.538Z,6.31
2018-04-07T05:49:00.511Z,6.41
2018-04-07T05:50:10.475Z,6.35
2018-04-07T05:51:20.434Z,6.44
2018-04-07T05:52:30.413Z,6.47
2018-04-07T05:53:40.376Z,6.5
2018-04-07T05:54:50.557Z,6.49
2018-04-07T05:56:00.507Z,6.57
2018-04-07T05:57:10.181Z,6.6
2018-04-07T05:58:19.632Z,6.59
2018-04-07T05:59:29.340Z,6.62
2018-04-07T06:00:39.560Z,6.67
2018-04-07T06:01:49.274Z,6.72
2018-04-07T06:02:58.974Z,6.68
2018-04-07T06:04:09.188Z,6.7
2018-04-07T06:05:19.165Z,6.77
2018-04-07T06:06:28.865Z,6.9
2018-04-07T06:07:38.826Z,6.9
2018-04-07T06:08:49.020Z,6.87
2018-04-07T06:09:58.722Z,6.87
2018-04-07T06:11:08.432Z,6.86
2018-04-07T06:12:18.398Z,6.93
2018-04-07T06:13:28.115Z,6.96
2018-04-07T06:14:38.088Z,6.97
2018-04-07T06:15:48.064Z,6.93
2018-04-07T06:16:57.767Z,7.01
2018-04-07T06:18:07.486Z,6.96
2018-04-07T06:19:17.456Z,6.95
2018-04-07T06:20:27.416Z,7.05
2018-04-07T06:21:37.155Z,7.18
2018-04-07T06:22:46.866Z,7.18
2018-04-07T06:23:56.848Z,7.21
2018-04-07T06:25:06.825Z,7.26
2018-04-07T06:26:16.529Z,7.19
2018-04-07T06:27:25.993Z,7.31
2018-04-07T06:28:35.699Z,7.37
2018-04-07T06:29:45.405Z,7.29
2018-04-07T06:30:55.103Z,7.4
2018-04-07T06:32:05.069Z,7.32
2018-04-07T06:33:14.772Z,7.33
2018-04-07T06:34:24.480Z,7.39
2018-04-07T06:35:34.466Z,7.44
2018-04-07T06:36:44.172Z,7.43
2018-04-07T06:37:54.137Z,7.46
2018-04-07T06:39:03.868Z,7.48
2018-04-07T06:40:13.767Z,7.53
2018-04-07T06:41:23.737Z,7.56
2018-04-07T06:42:32.918Z,7.64
2018-04-07T06:43:42.613Z,7.64
2018-04-07T06:44:52.576Z,7.66
2018-04-07T06:46:02.284Z,7.67
2018-04-07T06:47:12.008Z,7.66
2018-04-07T06:48:21.704Z,7.78
2018-04-07T06:49:31.409Z,7.74
2018-04-07T06:50:41.395Z,7.83
2018-04-07T06:51:51.385Z,7.77
2018-04-07T06:53:01.343Z,7.88
2018-04-07T06:54:11.302Z,7.9
2018-04-07T06:55:21.277Z,8.02
2018-04-07T06:56:31.237Z,8.03
2018-04-07T06:57:40.684Z,8.08
2018-04-07T06:58:50.638Z,8.05
2018-04-07T07:00:00.611Z,8.18
2018-04-07T07:01:10.056Z,8.14
2018-04-07T07:02:19.530Z,8.18
2018-04-07T07:03:29.501Z,8.18
2018-04-07T07:04:39.199Z,8.34
2018-04-07T07:05:49.163Z,8.27
2018-04-07T07:06:59.126Z,8.31
2018-04-07T07:08:08.833Z,8.31
2018-04-07T07:09:18.789Z,8.34
2018-04-07T07:10:28.752Z,8.35
2018-04-07T07:11:38.721Z,8.36
2018-04-07T07:12:48.680Z,8.44
2018-04-07T07:13:58.394Z,8.5
2018-04-07T07:15:08.363Z,8.54
2018-04-07T07:16:18.067Z,8.71
2018-04-07T07:17:27.522Z,8.66
2018-04-07T07:18:37.240Z,8.63
2018-04-07T07:19:47.218Z,8.66
2018-04-07T07:20:56.920Z,8.72
2018-04-07T07:22:06.637Z,8.87
2018-04-07T07:23:16.597Z,8.9
2018-04-07T07:24:26.574Z,8.9
2018-04-07T07:25:36.277Z,8.95
2018-04-07T07:26:46.289Z,9.11
2018-04-07T07:27:55.996Z,9.16
2018-04-07T07:29:05.969Z,9.29
2018-04-07T07:30:15.941Z,9.29
2018-04-07T07:31:25.683Z,9.47
2018-04-07T07:32:35.670Z,9.4
2018-04-07T07:33:45.635Z,9.51
2018-04-07T07:34:55.632Z,9.59
2018-04-07T07:36:05.594Z,9.56
2018-04-07T07:37:15.569Z,9.56
2018-04-07T07:38:25.311Z,9.59
2018-04-07T07:39:35.023Z,9.73
2018-04-07T07:40:44.718Z,9.76
2018-04-07T07:41:54.218Z,9.84
2018-04-07T07:43:04.046Z,9.82
2018-04-07T07:44:14.010Z,9.87
2018-04-07T07:45:23.981Z,9.81
2018-04-07T07:46:33.956Z,9.94
2018-04-07T07:47:43.402Z,9.84
2018-04-07T07:48:53.109Z,9.88
2018-04-07T07:50:03.120Z,9.95
2018-04-07T07:51:13.114Z,10.05
2018-04-07T07:52:23.082Z,10.02
2018-04-07T07:53:32.779Z,10.06
2018-04-07T07:54:42.750Z,10.2
2018-04-07T07:55:52.712Z,10.27
2018-04-07T07:57:02.664Z,10.41
2018-04-07T07:58:12.638Z,10.36
2018-04-07T07:59:22.608Z,10.39
2018-04-07T08:00:32.585Z,10.45
2018-04-07T08:01:42.556Z,10.55
2018-04-07T08:02:52.534Z,10.69
2018-04-07T08:04:02.237Z,10.64
2018-04-07T08:05:11.690Z,10.75
2018-04-07T08:06:21.400Z,10.82
2018-04-07T08:07:31.114Z,10.83
2018-04-07T08:08:40.819Z,10.72
2018-04-07T08:09:50.785Z,10.8
2018-04-07T08:11:00.744Z,10.87
2018-04-07T08:12:10.465Z,10.95
2018-04-07T08:13:20.453Z,11.07
2018-04-07T08:14:30.459Z,11.04
2018-04-07T08:15:40.459Z,10.98
2018-04-07T08:16:50.430Z,11.04
2018-04-07T08:18:00.400Z,11.2
2018-04-07T08:19:10.382Z,11.25
2018-04-07T08:20:20.094Z,11.37
2018-04-07T08:21:30.063Z,11.51
2018-04-07T08:22:40.230Z,11.56
2018-04-07T08:23:50.200Z,11.7
2018-04-07T08:24:59.920Z,11.74
2018-04-07T08:26:09.655Z,11.67
2018-04-07T08:27:19.718Z,11.81
2018-04-07T08:28:29.430Z,12.05
2018-04-07T08:29:39.148Z,12.21
2018-04-07T08:30:49.124Z,12.26
2018-04-07T08:31:59.102Z,12.4
2018-04-07T08:33:09.185Z,12.61
2018-04-07T08:34:18.901Z,12.86
2018-04-07T08:35:28.879Z,12.86
2018-04-07T08:36:38.866Z,12.9
2018-04-07T08:37:48.834Z,12.9
2018-04-07T08:38:58.817Z,13.13
2018-04-07T08:40:08.833Z,13.11
2018-04-07T08:41:18.802Z,13.06
2018-04-07T08:42:28.533Z,13.09
2018-04-07T08:43:38.261Z,13.13
2018-04-07T08:44:48.239Z,13.09
2018-04-07T08:45:58.262Z,13.21
2018-04-07T08:47:08.236Z,13.2
2018-04-07T08:48:18.203Z,13.03
2018-04-07T08:49:27.925Z,12.98
2018-04-07T08:50:37.634Z,12.95
2018-04-07T08:51:47.354Z,12.99
2018-04-07T08:52:57.320Z,13.01
2018-04-07T08:54:07.300Z,13.11
2018-04-07T08:55:17.004Z,13.2
2018-04-07T08:56:27.064Z,13.43
2018-04-07T08:57:37.044Z,13.65
2018-04-07T08:58:46.858Z,13.75
2018-04-07T08:59:56.900Z,13.98
2018-04-07T09:01:06.865Z,14.03
2018-04-07T09:02:16.591Z,13.98
2018-04-07T09:03:26.597Z,13.83
2018-04-07T09:04:36.578Z,13.91
2018-04-07T09:05:46.562Z,13.73
2018-04-07T09:06:56.324Z,13.65
2018-04-07T09:08:06.048Z,13.45
2018-04-07T09:09:16.030Z,13.47
2018-04-07T09:10:25.476Z,13.68
2018-04-07T09:11:34.925Z,13.78
2018-04-07T09:12:44.899Z,13.75
2018-04-07T09:13:54.094Z,13.87
2018-04-07T09:15:03.816Z,14.07
2018-04-07T09:16:13.782Z,14.16
2018-04-07T09:17:23.764Z,14.13
2018-04-07T09:18:33.801Z,14.08
2018-04-07T09:19:43.787Z,14.13
2018-04-07T09:20:53.494Z,14.3
2018-04-07T09:22:03.214Z,14.45
2018-04-07T09:23:12.922Z,14.37
2018-04-07T09:24:22.896Z,14.04
2018-04-07T09:25:32.609Z,14.23
2018-04-07T09:26:42.059Z,14.33
2018-04-07T09:27:52.027Z,14.48
2018-04-07T09:29:02.013Z,14.37
2018-04-07T09:30:11.993Z,14.34
2018-04-07T09:31:21.715Z,14.55
2018-04-07T09:32:31.438Z,14.51
2018-04-07T09:33:41.424Z,14.59
2018-04-07T09:34:51.387Z,14.7
2018-04-07T09:36:01.142Z,14.81
2018-04-07T09:37:11.138Z,14.73
2018-04-07T09:38:21.119Z,14.92
2018-04-07T09:39:30.842Z,14.78
2018-04-07T09:40:40.813Z,14.82
2018-04-07T09:41:50.531Z,14.96
2018-04-07T09:42:59.987Z,15
2018-04-07T09:44:09.700Z,15.05
2018-04-07T09:45:19.678Z,15.22
2018-04-07T09:46:29.392Z,15.3
2018-04-07T09:47:39.112Z,15.14
2018-04-07T09:48:48.826Z,15.11
2018-04-07T09:49:58.820Z,15.07
2018-04-07T09:51:08.809Z,15.3
2018-04-07T09:52:18.804Z,15.37
2018-04-07T09:53:28.532Z,15.7
2018-04-07T09:54:38.248Z,15.87
2018-04-07T09:55:47.956Z,16.18
2018-04-07T09:56:57.922Z,16.29
2018-04-07T09:58:07.885Z,16.25
2018-04-07T09:59:17.616Z,16.12
2018-04-07T10:00:27.604Z,16.09
2018-04-07T10:01:37.582Z,16.06
2018-04-07T10:02:47.558Z,15.92
2018-04-07T10:03:57.271Z,15.99
2018-04-07T10:05:07.255Z,16.06
2018-04-07T10:06:17.265Z,16.06
2018-04-07T10:07:27.260Z,16.32
2018-04-07T10:08:36.739Z,16.57
2018-04-07T10:09:46.716Z,16.83
2018-04-07T10:10:56.446Z,16.72
2018-04-07T10:12:05.903Z,16.55
2018-04-07T10:13:15.634Z,16.62
2018-04-07T10:14:25.605Z,16.86
2018-04-07T10:15:35.330Z,16.97
2018-04-07T10:16:45.317Z,17.19
2018-04-07T10:17:55.288Z,17.37
2018-04-07T10:19:05.006Z,17.54
2018-04-07T10:20:14.971Z,17.66
2018-04-07T10:21:24.701Z,17.65
2018-04-07T10:22:34.417Z,17.73
2018-04-07T10:23:44.139Z,17.65
2018-04-07T10:24:54.121Z,17.79
2018-04-07T10:26:04.103Z,17.97
2018-04-07T10:27:13.574Z,18.03
2018-04-07T10:28:23.285Z,18.15
2018-04-07T10:29:32.992Z,18.27
2018-04-07T10:30:42.700Z,18.49
2018-04-07T10:31:52.414Z,18.51
2018-04-07T10:33:02.401Z,18.46
2018-04-07T10:34:12.384Z,18.36
2018-04-07T10:35:22.345Z,18.18
2018-04-07T10:36:32.335Z,18.23
2018-04-07T10:37:42.089Z,18.36
2018-04-07T10:38:51.794Z,18.34
2018-04-07T10:40:01.504Z,18.45
2018-04-07T10:41:11.220Z,18.46
2018-04-07T10:42:21.196Z,18.57
2018-04-07T10:43:30.915Z,18.34
2018-04-07T10:44:40.372Z,18.39
2018-04-07T10:45:50.355Z,18.66
2018-04-07T10:47:00.338Z,18.79
2018-04-07T10:48:09.857Z,18.43
2018-04-07T10:49:19.841Z,18.26
2018-04-07T10:50:29.577Z,18.18
2018-04-07T10:51:39.031Z,18.39
2018-04-07T10:52:49.180Z,18.6
2018-04-07T10:53:59.226Z,18.88
2018-04-07T10:55:09.212Z,18.76
2018-04-07T10:56:18.925Z,18.7
2018-04-07T10:57:28.653Z,18.76
2018-04-07T10:58:38.623Z,18.6
2018-04-07T10:59:48.098Z,18.57
2018-04-07T11:00:57.612Z,18.42
2018-04-07T11:02:07.620Z,18.33
2018-04-07T11:03:17.632Z,18.46
2018-04-07T11:04:27.353Z,18.48
2018-04-07T11:05:36.809Z,18.27
2018-04-07T11:06:46.786Z,18.27
2018-04-07T11:07:56.514Z,18.37
2018-04-07T11:09:06.229Z,18.36
2018-04-07T11:10:16.213Z,18.48
2018-04-07T11:11:26.039Z,18.39
2018-04-07T11:12:36.078Z,18.61
2018-04-07T11:13:45.784Z,18.96
2018-04-07T11:14:55.505Z,18.92
2018-04-07T11:16:05.221Z,18.82
2018-04-07T11:17:14.978Z,18.58
2018-04-07T11:18:24.776Z,18.58
2018-04-07T11:19:34.491Z,18.96
2018-04-07T11:20:44.463Z,18.88
2018-04-07T11:21:53.671Z,18.85
2018-04-07T11:23:03.392Z,19.01
2018-04-07T11:24:13.372Z,19.32
2018-04-07T11:25:23.084Z,19.24
2018-04-07T11:26:32.804Z,19.01
2018-04-07T11:27:42.784Z,19.08
2018-04-07T11:28:52.766Z,19.24
2018-04-07T11:30:02.597Z,19.41
2018-04-07T11:31:12.581Z,19.53
2018-04-07T11:32:22.294Z,19.49
2018-04-07T11:33:32.323Z,19.56
2018-04-07T11:34:42.071Z,19.59
2018-04-07T11:35:51.784Z,19.29
2018-04-07T11:37:01.757Z,19.48
2018-04-07T11:38:11.259Z,19.59
2018-04-07T11:39:21.233Z,19.9
2018-04-07T11:40:30.690Z,20.03
2018-04-07T11:41:40.659Z,20.11
2018-04-07T11:42:50.375Z,20.11
2018-04-07T11:44:00.365Z,20.18
2018-04-07T11:45:09.928Z,20.32
2018-04-07T11:46:19.691Z,20.24
2018-04-07T11:47:29.680Z,20.42
2018-04-07T11:48:39.398Z,20.32
2018-04-07T11:49:48.882Z,20
2018-04-07T11:50:58.608Z,19.9
2018-04-07T11:52:08.317Z,19.97
2018-04-07T11:53:18.298Z,20.24
2018-04-07T11:54:28.006Z,20.42
2018-04-07T11:55:37.725Z,20.68
2018-04-07T11:56:47.441Z,20.89
2018-04-07T11:57:57.155Z,20.74
2018-04-07T11:59:07.143Z,20.42
2018-04-07T12:00:16.860Z,20.56
2018-04-07T12:01:26.832Z,20.68
2018-04-07T12:02:37.181Z,20.75
2018-04-07T12:03:46.730Z,20.88
2018-04-07T12:04:56.453Z,20.52
2018-04-07T12:06:06.442Z,20.44
2018-04-07T12:07:16.422Z,20.4
2018-04-07T12:08:26.132Z,20.32
2018-04-07T12:09:35.596Z,20.5
2018-04-07T12:10:45.058Z,20.67
2018-04-07T12:11:54.521Z,20.77
2018-04-07T12:13:04.232Z,20.88
2018-04-07T12:14:14.217Z,20.96
2018-04-07T12:15:23.945Z,21
2018-04-07T12:16:33.921Z,21.04
2018-04-07T12:17:43.644Z,20.89
2018-04-07T12:18:53.802Z,20.88
2018-04-07T12:20:03.838Z,20.93
2018-04-07T12:21:13.300Z,20.82
2018-04-07T12:22:23.277Z,20.68
2018-04-07T12:23:32.990Z,20.77
2018-04-07T12:24:42.726Z,20.66
2018-04-07T12:25:52.174Z,20.55
2018-04-07T12:27:02.162Z,20.58
2018-04-07T12:28:11.879Z,20.55
2018-04-07T12:29:21.850Z,20.7
2018-04-07T12:30:31.585Z,21.01
2018-04-07T12:31:41.350Z,21.17
2018-04-07T12:32:51.047Z,21.32
2018-04-07T12:34:01.246Z,21.41
2018-04-07T12:35:10.442Z,21.66
2018-04-07T12:36:20.155Z,21.65
2018-04-07T12:37:29.881Z,21.65
2018-04-07T12:38:39.866Z,21.47
2018-04-07T12:39:49.602Z,21.28
2018-04-07T12:40:59.577Z,21.33
2018-04-07T12:42:09.290Z,21.6
2018-04-07T12:43:18.489Z,21.88
2018-04-07T12:44:28.486Z,22.04
2018-04-07T12:45:38.457Z,21.72
2018-04-07T12:46:47.927Z,21.59
2018-04-07T12:47:57.659Z,21.89
2018-04-07T12:49:07.641Z,21.89
2018-04-07T12:50:17.610Z,21.94
2018-04-07T12:51:27.075Z,22.01
2018-04-07T12:52:37.073Z,21.91
2018-04-07T12:53:47.058Z,21.81
2018-04-07T12:54:56.774Z,21.94
2018-04-07T12:56:06.565Z,21.92
2018-04-07T12:57:16.347Z,22.1
2018-04-07T12:58:26.077Z,22.15
2018-04-07T12:59:36.060Z,22.33
2018-04-07T13:00:45.782Z,22.47
2018-04-07T13:01:55.758Z,22.56
2018-04-07T13:03:05.479Z,22.77
2018-04-07T13:04:15.473Z,22.99
2018-04-07T13:05:25.188Z,22.73
2018-04-07T13:06:35.169Z,22.33
2018-04-07T13:07:44.901Z,22.07
2018-04-07T13:08:54.873Z,21.74
2018-04-07T13:10:04.597Z,21.58
2018-04-07T13:11:14.586Z,21.62
2018-04-07T13:12:24.350Z,21.7
2018-04-07T13:13:34.067Z,21.37
2018-04-07T13:14:44.040Z,21.28
2018-04-07T13:15:53.784Z,21.48
2018-04-07T13:17:03.773Z,21.48
2018-04-07T13:18:13.766Z,21.43
2018-04-07T13:19:23.753Z,21.28
2018-04-07T13:20:33.760Z,21.35
2018-04-07T13:21:43.741Z,21.4
2018-04-07T13:22:53.739Z,21.45
2018-04-07T13:24:03.731Z,21.72
2018-04-07T13:25:13.764Z,21.66
2018-04-07T13:26:23.746Z,21.56
2018-04-07T13:27:33.218Z,21.66
2018-04-07T13:28:42.942Z,21.6
2018-04-07T13:29:52.917Z,21.59
2018-04-07T13:31:02.899Z,21.62
2018-04-07T13:32:12.620Z,21.44
2018-04-07T13:33:22.615Z,21.35
2018-04-07T13:34:44.181Z,21.44
2018-04-07T13:35:54.168Z,21.45
2018-04-07T13:37:04.158Z,21.47
2018-04-07T13:38:13.612Z,21.56
2018-04-07T13:39:23.599Z,21.58
2018-04-07T13:40:33.670Z,21.68
2018-04-07T13:41:43.647Z,21.74
2018-04-07T13:42:53.361Z,21.68
2018-04-07T13:44:03.077Z,21.8
2018-04-07T13:45:13.065Z,21.84
2018-04-07T13:46:22.800Z,21.97
2018-04-07T13:47:32.796Z,22.01
2018-04-07T13:48:42.564Z,22.12
2018-04-07T13:49:52.547Z,22.37
2018-04-07T13:51:02.274Z,22.59
2018-04-07T13:52:12.252Z,22.33
2018-04-07T13:53:22.227Z,22.18
2018-04-07T13:54:31.951Z,22.14
2018-04-07T13:55:41.425Z,22.28
2018-04-07T13:56:51.143Z,22.19
2018-04-07T13:58:01.124Z,22.31
2018-04-07T13:59:11.114Z,22.31
2018-04-07T14:00:20.838Z,22.56
2018-04-07T14:01:30.306Z,22.46
2018-04-07T14:02:40.280Z,22.26
2018-04-07T14:03:49.993Z,22.1
2018-04-07T14:04:59.447Z,22.16
2018-04-07T14:06:09.166Z,22.14
2018-04-07T14:07:19.136Z,22.16
2018-04-07T14:08:28.856Z,22.23
2018-04-07T14:09:38.326Z,21.96
2018-04-07T14:10:47.788Z,22.03
2018-04-07T14:11:57.507Z,22.16
2018-04-07T14:13:07.480Z,22.23
2018-04-07T14:14:17.468Z,21.97
2018-04-07T14:15:27.192Z,22.18
2018-04-07T14:16:37.197Z,22.44
2018-04-07T14:17:46.664Z,22.68
2018-04-07T14:18:56.119Z,22.86
2018-04-07T14:20:05.358Z,23.02
2018-04-07T14:21:15.339Z,23.02
2018-04-07T14:22:25.076Z,22.91
2018-04-07T14:23:34.804Z,23.02
2018-04-07T14:24:44.796Z,23.01
2018-04-07T14:25:54.769Z,22.74
2018-04-07T14:27:04.753Z,22.76
2018-04-07T14:28:14.486Z,22.65
2018-04-07T14:29:24.464Z,22.7
2018-04-07T14:30:34.442Z,22.62
2018-04-07T14:31:44.466Z,22.62
2018-04-07T14:32:54.448Z,22.71
2018-04-07T14:34:04.439Z,22.77
2018-04-07T14:35:14.438Z,23.06
2018-04-07T14:36:24.436Z,23.08
2018-04-07T14:37:34.411Z,22.83
2018-04-07T14:38:44.135Z,22.74
2018-04-07T14:39:53.589Z,22.68
2018-04-07T14:41:03.564Z,22.71
2018-04-07T14:42:13.300Z,22.7
2018-04-07T14:43:23.269Z,22.88
2018-04-07T14:44:32.982Z,22.92
2018-04-07T14:45:42.707Z,22.89
2018-04-07T14:46:52.418Z,22.77
2018-04-07T14:48:02.402Z,22.74
2018-04-07T14:49:12.385Z,22.88
2018-04-07T14:50:22.104Z,22.67
2018-04-07T14:51:32.090Z,22.63
2018-04-07T14:52:42.064Z,22.86
2018-04-07T14:53:51.524Z,22.96
2018-04-07T14:55:01.246Z,23.18
2018-04-07T14:56:10.959Z,23.14
2018-04-07T14:57:20.950Z,22.92
2018-04-07T14:58:30.670Z,22.88
2018-04-07T14:59:40.667Z,22.67
2018-04-07T15:00:50.403Z,22.78
2018-04-07T15:02:00.124Z,22.81
2018-04-07T15:03:10.095Z,22.7
2018-04-07T15:04:19.296Z,22.56
2018-04-07T15:05:29.286Z,22.53
2018-04-07T15:06:39.028Z,22.46
2018-04-07T15:07:48.756Z,22.47
2018-04-07T15:08:58.210Z,22.63
2018-04-07T15:10:08.191Z,22.67
2018-04-07T15:11:17.934Z,22.61
2018-04-07T15:12:27.938Z,22.73
2018-04-07T15:13:37.943Z,22.81
2018-04-07T15:14:47.922Z,22.73
2018-04-07T15:15:57.640Z,22.55
2018-04-07T15:17:07.103Z,22.53
2018-04-07T15:18:17.085Z,22.49